Terminal Aerodrome Forecast
Issued by NWS Paducah, KY

Home | Current Version | Previous Version | Text Only | Print | Product List | Glossary On
Versions: 1 2 3 4 5 6 7 8 9 10 11 12 13
000
FTUS43 KPAH 301737
TAFPAH
TAF
KPAH 301737Z 3018/0118 35012G18KT P6SM SCT060
      TEMPO 3019/3021 BKN060
     FM010100 35004KT P6SM SKC=

USA.gov is the U.S. government's official web portal to all federal, state and local government web resources and services.